createdAt,value
2022-11-08T00:00:43.967Z,10.55
2022-11-08T00:05:43.974Z,8.55
2022-11-08T00:10:42.175Z,10.00
2022-11-08T00:15:27.479Z,11.25
2022-11-08T00:20:14.346Z,9.73
2022-11-08T00:25:01.985Z,6.97
2022-11-08T00:29:47.440Z,11.43
2022-11-08T00:34:32.531Z,7.72
2022-11-08T00:39:17.756Z,11.27
2022-11-08T00:44:05.360Z,11.00
2022-11-08T00:48:50.632Z,9.75
2022-11-08T00:53:35.905Z,13.43
2022-11-08T00:58:24.916Z,13.57
2022-11-08T01:03:24.152Z,10.15
2022-11-08T01:08:09.566Z,14.20
2022-11-08T01:12:54.546Z,12.70
2022-11-08T01:17:39.855Z,10.65
2022-11-08T01:22:27.463Z,10.60
2022-11-08T01:27:12.743Z,11.52
2022-11-08T01:31:57.716Z,13.00
2022-11-08T01:36:42.971Z,11.93
2022-11-08T01:41:30.895Z,16.20
2022-11-08T01:46:44.168Z,11.50
2022-11-08T01:51:34.004Z,13.80
2022-11-08T01:56:19.708Z,19.08
2022-11-08T02:01:07.771Z,16.00
2022-11-08T02:05:52.861Z,13.95
2022-11-08T02:10:40.922Z,15.27
2022-11-08T02:15:27.949Z,12.60
2022-11-08T02:20:16.260Z,15.70
2022-11-08T02:25:04.584Z,11.15
2022-11-08T02:29:49.944Z,18.15
2022-11-08T02:34:38.269Z,13.27
2022-11-08T02:39:23.551Z,13.77
2022-11-08T02:44:11.233Z,21.38
2022-11-08T02:48:56.502Z,14.27
2022-11-08T02:53:41.497Z,14.90
2022-11-08T02:58:28.129Z,11.55
2022-11-08T03:03:15.771Z,20.40
2022-11-08T03:08:01.501Z,16.63
2022-11-08T03:12:47.207Z,15.68
2022-11-08T03:17:32.498Z,13.75
2022-11-08T03:22:20.138Z,11.77
2022-11-08T03:27:05.377Z,12.45
2022-11-08T03:31:50.427Z,14.27
2022-11-08T03:36:35.703Z,11.55
2022-11-08T03:41:23.288Z,15.45
2022-11-08T03:46:08.749Z,14.32
2022-11-08T03:50:53.980Z,12.68
2022-11-08T03:55:39.281Z,17.52
2022-11-08T04:00:28.512Z,13.95
2022-11-08T04:05:15.709Z,11.52
2022-11-08T04:10:01.156Z,22.75
2022-11-08T04:14:58.800Z,12.32
2022-11-08T04:19:58.747Z,12.15
2022-11-08T04:24:44.016Z,14.13
2022-11-08T04:29:29.031Z,14.82
2022-11-08T04:34:14.565Z,15.75
2022-11-08T04:39:02.517Z,13.50
2022-11-08T04:43:48.233Z,13.88
2022-11-08T04:48:33.693Z,11.10
2022-11-08T04:53:18.978Z,10.32
2022-11-08T04:58:06.611Z,11.05
2022-11-08T05:02:51.938Z,10.52
2022-11-08T05:07:37.004Z,10.55
2022-11-08T05:12:22.312Z,16.10
2022-11-08T05:17:09.910Z,10.32
2022-11-08T05:22:07.518Z,8.73
2022-11-08T05:26:52.510Z,12.25
2022-11-08T05:31:37.792Z,8.63
2022-11-08T05:36:25.372Z,7.97
2022-11-08T05:41:13.482Z,7.88
2022-11-08T05:45:58.488Z,9.40
2022-11-08T05:50:43.744Z,10.50
2022-11-08T05:55:31.490Z,9.65
2022-11-08T06:00:17.776Z,6.80
2022-11-08T06:05:03.448Z,8.00
2022-11-08T06:09:48.737Z,10.40
2022-11-08T06:14:36.360Z,10.82
2022-11-08T06:19:21.631Z,13.82
2022-11-08T06:24:07.187Z,12.93
2022-11-08T06:28:53.022Z,13.23
2022-11-08T06:33:40.822Z,10.48
2022-11-08T06:38:26.225Z,11.05
2022-11-08T06:43:18.162Z,10.65
2022-11-08T06:48:06.355Z,12.60
2022-11-08T06:52:58.915Z,9.52
2022-11-08T06:57:44.208Z,11.57
2022-11-08T07:02:29.335Z,9.82
2022-11-08T07:07:14.675Z,10.57
2022-11-08T07:12:02.707Z,10.65
2022-11-08T07:16:47.747Z,12.50
2022-11-08T07:21:33.044Z,10.13
2022-11-08T07:26:18.098Z,8.27
2022-11-08T07:31:07.909Z,12.98
2022-11-08T07:35:52.939Z,12.48
2022-11-08T07:40:38.355Z,11.40
2022-11-08T07:45:23.564Z,10.68
2022-11-08T07:50:16.384Z,8.63
2022-11-08T07:55:02.830Z,14.45
2022-11-08T07:59:48.404Z,10.50
2022-11-08T08:04:33.813Z,7.13
2022-11-08T08:09:21.459Z,8.93
2022-11-08T08:14:06.840Z,11.63
2022-11-08T08:18:56.140Z,7.82
2022-11-08T08:23:41.992Z,8.65
2022-11-08T08:28:29.776Z,9.55
2022-11-08T08:33:32.454Z,9.80
2022-11-08T08:38:17.816Z,10.15
2022-11-08T08:43:05.128Z,10.43
2022-11-08T08:47:57.028Z,10.73
2022-11-08T08:52:42.638Z,9.32
2022-11-08T08:57:27.908Z,6.53
2022-11-08T09:02:14.627Z,7.63
2022-11-08T09:07:02.659Z,10.93
2022-11-08T09:11:47.893Z,8.85
2022-11-08T09:16:33.143Z,8.45
2022-11-08T09:21:18.155Z,9.32
2022-11-08T09:26:08.600Z,7.55
2022-11-08T09:30:53.897Z,8.43
2022-11-08T09:35:38.889Z,7.10
2022-11-08T09:40:29.286Z,7.50
2022-11-08T09:45:29.293Z,10.60
2022-11-08T09:50:20.430Z,9.38
2022-11-08T09:55:19.029Z,4.93
2022-11-08T10:00:07.627Z,7.40
2022-11-08T10:05:00.016Z,7.78
2022-11-08T10:10:10.891Z,8.02
2022-11-08T10:15:14.116Z,7.35
2022-11-08T10:20:13.359Z,7.00
2022-11-08T10:25:03.567Z,8.50
2022-11-08T10:29:49.752Z,6.18
2022-11-08T10:34:44.600Z,9.10
2022-11-08T10:39:38.429Z,8.85
2022-11-08T10:44:25.840Z,7.78
2022-11-08T10:49:23.527Z,10.82
2022-11-08T10:54:08.731Z,9.43
2022-11-08T10:58:56.679Z,4.43
2022-11-08T11:03:41.964Z,6.65
2022-11-08T11:08:27.429Z,13.00
2022-11-08T11:13:15.787Z,6.03
2022-11-08T11:18:03.529Z,7.85
2022-11-08T11:22:49.760Z,6.57
2022-11-08T11:27:37.750Z,5.00
2022-11-08T11:32:27.932Z,7.18
2022-11-08T11:37:23.522Z,5.80
2022-11-08T11:42:44.018Z,7.93
2022-11-08T11:47:30.404Z,9.15
2022-11-08T11:52:20.640Z,11.93
2022-11-08T11:57:11.471Z,19.83
2022-11-08T12:02:31.827Z,22.33
2022-11-08T12:07:24.964Z,29.95
2022-11-08T12:12:24.175Z,27.88
2022-11-08T12:17:25.179Z,25.55
2022-11-08T12:22:35.189Z,36.58
2022-11-08T12:27:35.155Z,24.88
2022-11-08T12:32:40.593Z,31.42
2022-11-08T12:37:41.788Z,25.58
2022-11-08T12:42:44.881Z,27.87
2022-11-08T12:47:37.639Z,27.73
2022-11-08T12:52:38.537Z,28.38
2022-11-08T12:57:28.451Z,25.87
2022-11-08T13:02:21.631Z,18.77
2022-11-08T13:07:15.951Z,21.45
2022-11-08T13:12:14.087Z,16.23
2022-11-08T13:17:25.604Z,21.70
2022-11-08T13:22:51.229Z,27.38
2022-11-08T13:27:40.594Z,25.70
2022-11-08T13:32:35.023Z,28.85
2022-11-08T13:37:39.960Z,20.73
2022-11-08T13:42:33.523Z,13.38
2022-11-08T13:47:48.480Z,14.05
2022-11-08T13:52:50.196Z,27.23
2022-11-08T13:58:00.816Z,16.35
2022-11-08T14:02:46.181Z,20.65
2022-11-08T14:07:37.852Z,21.88
2022-11-08T14:17:33.886Z,19.20
2022-11-08T14:22:23.128Z,19.17
2022-11-08T14:27:08.626Z,18.67
2022-11-08T14:32:08.536Z,20.83
2022-11-08T14:36:56.152Z,16.60
2022-11-08T14:41:42.874Z,23.13
2022-11-08T14:46:33.638Z,24.33
2022-11-08T14:51:24.765Z,23.20
2022-11-08T14:56:19.738Z,22.77
2022-11-08T15:01:06.879Z,24.63
2022-11-08T15:05:59.302Z,16.98
2022-11-08T15:10:58.627Z,22.75
2022-11-08T15:15:43.837Z,28.33
2022-11-08T15:20:29.136Z,27.90
2022-11-08T15:25:31.512Z,34.53
2022-11-08T15:30:22.037Z,28.90
2022-11-08T15:35:08.513Z,35.80
2022-11-08T15:39:54.298Z,28.08
2022-11-08T15:45:05.067Z,25.00
2022-11-08T15:49:52.950Z,26.67
2022-11-08T15:54:37.984Z,31.60
2022-11-08T15:59:27.497Z,34.90
2022-11-08T16:04:15.312Z,28.77
2022-11-08T16:09:03.183Z,28.00
2022-11-08T16:13:49.206Z,39.25
2022-11-08T16:18:35.156Z,38.35
2022-11-08T16:23:20.558Z,29.17
2022-11-08T16:28:10.375Z,37.78
2022-11-08T16:32:55.959Z,40.17
2022-11-08T16:37:41.974Z,27.48
2022-11-08T16:42:27.155Z,26.63
2022-11-08T16:47:20.826Z,35.38
2022-11-08T16:52:06.069Z,29.10
2022-11-08T16:56:51.704Z,28.63
2022-11-08T17:01:38.324Z,28.63
2022-11-08T17:06:26.382Z,36.08
2022-11-08T17:11:13.250Z,26.27
2022-11-08T17:15:58.269Z,36.03
2022-11-08T17:20:43.848Z,28.35
2022-11-08T17:25:31.469Z,37.47
2022-11-08T17:30:21.299Z,26.27
2022-11-08T17:35:12.615Z,32.70
2022-11-08T17:39:58.461Z,30.20
2022-11-08T17:44:46.078Z,28.65
2022-11-08T17:49:31.380Z,29.20
2022-11-08T17:54:16.542Z,30.63
2022-11-08T17:59:01.821Z,35.25
2022-11-08T18:03:49.453Z,31.23
2022-11-08T18:08:36.377Z,38.00
2022-11-08T18:13:21.846Z,29.85
2022-11-08T18:18:07.766Z,30.30
2022-11-08T18:22:55.379Z,29.38
2022-11-08T18:27:41.092Z,44.95
2022-11-08T18:32:26.386Z,48.20
2022-11-08T18:37:11.669Z,58.35
2022-11-08T18:41:59.362Z,52.03
2022-11-08T18:46:44.652Z,45.45
2022-11-08T18:51:29.948Z,78.85
2022-11-08T18:56:16.374Z,68.97
2022-11-08T19:01:04.633Z,77.35
2022-11-08T19:05:49.972Z,72.85
2022-11-08T19:10:35.467Z,72.40
2022-11-08T19:15:22.399Z,60.63
2022-11-08T19:20:11.454Z,70.30
2022-11-08T19:24:56.408Z,55.75
2022-11-08T19:29:41.702Z,59.13
2022-11-08T19:34:26.700Z,68.43
2022-11-08T19:39:16.403Z,58.53
2022-11-08T19:44:01.651Z,58.80
2022-11-08T19:48:48.550Z,56.55
2022-11-08T19:53:34.730Z,50.75
2022-11-08T19:58:22.521Z,49.65
2022-11-08T20:03:08.005Z,53.50
2022-11-08T20:07:53.057Z,50.53
2022-11-08T20:12:38.340Z,48.53
2022-11-08T20:17:25.948Z,53.03
2022-11-08T20:22:11.593Z,52.25
2022-11-08T20:26:57.085Z,43.30
2022-11-08T20:31:42.730Z,48.03
2022-11-08T20:36:34.926Z,85.38
2022-11-08T20:41:21.310Z,201.10
2022-11-08T20:46:07.032Z,209.98
2022-11-08T20:50:52.314Z,95.53
2022-11-08T20:55:39.915Z,79.50
2022-11-08T21:00:52.196Z,58.30
2022-11-08T21:05:30.680Z,57.20
2022-11-08T21:10:41.569Z,54.20
2022-11-08T21:15:28.164Z,97.05
2022-11-08T21:20:14.268Z,90.35
2022-11-08T21:24:59.519Z,51.08
2022-11-08T21:29:44.602Z,45.78
2022-11-08T21:34:32.997Z,48.75
2022-11-08T21:39:18.143Z,41.13
2022-11-08T21:44:03.418Z,51.83
2022-11-08T21:48:49.179Z,46.03
2022-11-08T21:53:45.165Z,43.88
2022-11-08T21:58:33.121Z,61.75
2022-11-08T22:03:18.382Z,57.55
2022-11-08T22:08:03.362Z,51.78
2022-11-08T22:12:51.251Z,35.05
2022-11-08T22:17:36.417Z,33.65
2022-11-08T22:22:22.028Z,34.75
2022-11-08T22:27:07.215Z,32.70
2022-11-08T22:31:55.257Z,31.85
2022-11-08T22:36:45.036Z,30.48
2022-11-08T22:41:31.373Z,27.33
2022-11-08T22:46:17.302Z,21.90
2022-11-08T22:51:05.519Z,27.70
2022-11-08T22:55:50.507Z,26.13
2022-11-08T23:00:35.788Z,24.83
2022-11-08T23:05:21.120Z,27.90
2022-11-08T23:10:09.391Z,24.73
2022-11-08T23:15:07.062Z,27.95
2022-11-08T23:20:04.411Z,26.73
2022-11-08T23:24:50.530Z,27.95
2022-11-08T23:29:51.218Z,23.63
2022-11-08T23:34:36.461Z,27.50
2022-11-08T23:39:21.501Z,24.70
2022-11-08T23:44:19.129Z,23.58
2022-11-08T23:49:07.400Z,22.45
2022-11-08T23:53:52.798Z,24.08
2022-11-08T23:58:37.751Z,26.58
